N8893U KSAN-
Flight info
| Callsign | N8893U |
|---|---|
| Flight time | N/A |
| Altitude | VFR |
| Route | VFR N |
| Aircraft | DA62/L-VGD/C |
Departure
| Time | 2026-05-04 00:03 |
|---|---|
| Airport | San Diego International Airport (KSAN) |
Arrival
| Time | N/A |
|---|---|
| Airport | - |
| Time | Latitude | Longitude | Altitude | Speed | Heading |
|---|---|---|---|---|---|
| 2026-05-04 00:03 | 32.73988 | -117.20759 | 1593 ft | 95 kts | 317° |
| 2026-05-04 00:03 | 32.74565 | -117.21213 | 1976 ft | 102 kts | 323° |
| 2026-05-04 00:03 | 32.75228 | -117.21678 | 2202 ft | 122 kts | 323° |
| 2026-05-04 00:04 | 32.75993 | -117.22246 | 2388 ft | 138 kts | 324° |
| 2026-05-04 00:04 | 32.76867 | -117.22929 | 2240 ft | 152 kts | 323° |
| 2026-05-04 00:04 | 32.77685 | -117.23570 | 2203 ft | 131 kts | 323° |
| 2026-05-04 00:04 | 32.78399 | -117.24129 | 2194 ft | 115 kts | 322° |
| 2026-05-04 00:05 | 32.79026 | -117.24607 | 2197 ft | 100 kts | 323° |
| 2026-05-04 00:05 | 32.79596 | -117.25021 | 2196 ft | 92 kts | 322° |
| 2026-05-04 00:05 | 32.80135 | -117.25395 | 2198 ft | 90 kts | 324° |
| 2026-05-04 00:05 | 32.80815 | -117.25679 | 2227 ft | 123 kts | 350° |
| 2026-05-04 00:06 | 32.81756 | -117.25804 | 2209 ft | 146 kts | 348° |
| 2026-05-04 00:06 | 32.82804 | -117.25967 | 2209 ft | 157 kts | 348° |
| 2026-05-04 00:06 | 32.83904 | -117.26140 | 2207 ft | 162 kts | 349° |
| 2026-05-04 00:06 | 32.85021 | -117.26330 | 2198 ft | 160 kts | 347° |
| 2026-05-04 00:07 | 32.86098 | -117.26506 | 2201 ft | 155 kts | 349° |
| 2026-05-04 00:07 | 32.87159 | -117.26675 | 2200 ft | 153 kts | 349° |
| 2026-05-04 00:07 | 32.88229 | -117.26845 | 2195 ft | 153 kts | 347° |
| 2026-05-04 00:07 | 32.89268 | -117.27020 | 2193 ft | 153 kts | 349° |
| 2026-05-04 00:08 | 32.90325 | -117.27201 | 2196 ft | 154 kts | 349° |
| 2026-05-04 00:08 | 32.91378 | -117.27378 | 2196 ft | 153 kts | 348° |
| 2026-05-04 00:08 | 32.92433 | -117.27550 | 2195 ft | 152 kts | 348° |
| 2026-05-04 00:08 | 32.93485 | -117.27716 | 2205 ft | 153 kts | 348° |
| 2026-05-04 00:09 | 32.94556 | -117.27883 | 2199 ft | 157 kts | 348° |
| 2026-05-04 00:09 | 32.95641 | -117.28061 | 2200 ft | 157 kts | 348° |
| 2026-05-04 00:09 | 32.96723 | -117.28242 | 2203 ft | 158 kts | 347° |
| 2026-05-04 00:09 | 32.97820 | -117.28426 | 2189 ft | 159 kts | 348° |
| 2026-05-04 00:10 | 32.98907 | -117.28613 | 2187 ft | 156 kts | 347° |
| 2026-05-04 00:10 | 32.99977 | -117.28792 | 2181 ft | 155 kts | 347° |
| 2026-05-04 00:10 | 33.01041 | -117.28968 | 2180 ft | 154 kts | 348° |
| 2026-05-04 00:10 | 33.02095 | -117.29141 | 2177 ft | 152 kts | 349° |
| 2026-05-04 00:11 | 33.03138 | -117.29310 | 2177 ft | 151 kts | 348° |
| 2026-05-04 00:11 | 33.04169 | -117.29487 | 2181 ft | 153 kts | 348° |
| 2026-05-04 00:11 | 33.05236 | -117.29662 | 2187 ft | 156 kts | 348° |
| 2026-05-04 00:11 | 33.06316 | -117.29838 | 2194 ft | 158 kts | 348° |
| 2026-05-04 00:12 | 33.07409 | -117.30024 | 2193 ft | 159 kts | 348° |
| 2026-05-04 00:12 | 33.08505 | -117.30209 | 2185 ft | 158 kts | 349° |
| 2026-05-04 00:12 | 33.09582 | -117.30395 | 2179 ft | 155 kts | 348° |
| 2026-05-04 00:12 | 33.10651 | -117.30570 | 2180 ft | 156 kts | 348° |
| 2026-05-04 00:13 | 33.11729 | -117.30754 | 2183 ft | 157 kts | 347° |
| 2026-05-04 00:13 | 33.12811 | -117.30930 | 2181 ft | 157 kts | 347° |
| 2026-05-04 00:13 | 33.13883 | -117.31096 | 2184 ft | 153 kts | 348° |
| 2026-05-04 00:13 | 33.14941 | -117.31267 | 2183 ft | 154 kts | 348° |
| 2026-05-04 00:14 | 33.15992 | -117.31436 | 2182 ft | 155 kts | 347° |
| 2026-05-04 00:14 | 33.17076 | -117.31603 | 2188 ft | 155 kts | 349° |
| 2026-05-04 00:14 | 33.18127 | -117.31762 | 2185 ft | 154 kts | 349° |
| 2026-05-04 00:14 | 33.19182 | -117.31922 | 2186 ft | 152 kts | 348° |
| 2026-05-04 00:15 | 33.20233 | -117.32093 | 2180 ft | 152 kts | 347° |
| 2026-05-04 00:15 | 33.21276 | -117.32263 | 2177 ft | 151 kts | 348° |
| 2026-05-04 00:15 | 33.22318 | -117.32433 | 2179 ft | 151 kts | 349° |
| 2026-05-04 00:15 | 33.23362 | -117.32597 | 2174 ft | 151 kts | 348° |
| 2026-05-04 00:16 | 33.24408 | -117.32759 | 2181 ft | 153 kts | 348° |
| 2026-05-04 00:16 | 33.25461 | -117.32921 | 2187 ft | 152 kts | 349° |
| 2026-05-04 00:16 | 33.26513 | -117.33099 | 2184 ft | 153 kts | 348° |
| 2026-05-04 00:16 | 33.27574 | -117.33274 | 2192 ft | 155 kts | 347° |
| 2026-05-04 00:17 | 33.28662 | -117.33442 | 2184 ft | 158 kts | 348° |
| 2026-05-04 00:17 | 33.29748 | -117.33603 | 2185 ft | 161 kts | 346° |
| 2026-05-04 00:17 | 33.30855 | -117.33759 | 2187 ft | 160 kts | 348° |
| 2026-05-04 00:17 | 33.31955 | -117.33921 | 2185 ft | 158 kts | 347° |
| 2026-05-04 00:18 | 33.33037 | -117.34079 | 2180 ft | 156 kts | 347° |
| 2026-05-04 00:18 | 33.34115 | -117.34236 | 2185 ft | 158 kts | 348° |
| 2026-05-04 00:18 | 33.35201 | -117.34386 | 2180 ft | 156 kts | 349° |
| 2026-05-04 00:18 | 33.36279 | -117.34537 | 2178 ft | 156 kts | 349° |
| 2026-05-04 00:19 | 33.37332 | -117.34690 | 2191 ft | 151 kts | 348° |
| 2026-05-04 00:19 | 33.38382 | -117.34860 | 2188 ft | 153 kts | 347° |
| 2026-05-04 00:19 | 33.39440 | -117.35026 | 2190 ft | 155 kts | 351° |
| 2026-05-04 00:19 | 33.40506 | -117.35205 | 2187 ft | 154 kts | 347° |
| 2026-05-04 00:20 | 33.41586 | -117.35382 | 2193 ft | 159 kts | 348° |
| 2026-05-04 00:20 | 33.42670 | -117.35555 | 2188 ft | 160 kts | 348° |
| 2026-05-04 00:20 | 33.43761 | -117.35739 | 2194 ft | 157 kts | 348° |
| 2026-05-04 00:20 | 33.44197 | -117.35804 | 2180 ft | 0 kts | 348° |